Time;durP1;ratioP1;P1;durP2;ratioP2;P2;SDS_P1;SDS_P2;PMS_P1;PMS_P2;Temp;Humidity;BMP_temperature;BMP_pressure;BME280_temperature;BME280_humidity;BME280_pressure;Samples;Min_cycle;Max_cycle;Signal;HPM_P1;HPM_P2
2021/11/10 00:02:21;;;;;;;48.13;26.50;;;;;;;;;;765976;180;981382;-67
2021/11/10 00:04:47;;;;;;;38.23;24.10;;;;;;;;;;776363;180;918587;-66
2021/11/10 00:07:12;;;;;;;35.70;22.07;;;;;;;;;;771734;180;920318;-67
2021/11/10 00:09:38;;;;;;;35.22;19.75;;;;;;;;;;766995;180;919348;-67
2021/11/10 00:12:05;;;;;;;34.30;18.30;;;;;;;;;;770034;180;919294;-66
2021/11/10 00:14:31;;;;;;;39.43;20.27;;;;;;;;;;766042;183;918769;-67
2021/11/10 00:16:57;;;;;;;36.03;17.40;;;;;;;;;;764285;180;928471;-67
2021/11/10 00:19:23;;;;;;;26.77;16.08;;;;;;;;;;767048;180;942905;-67
2021/11/10 00:21:50;;;;;;;27.13;15.20;;;;;;;;;;769112;181;918385;-68
2021/11/10 00:24:15;;;;;;;23.77;15.00;;;;;;;;;;768214;180;918877;-68
2021/11/10 00:26:41;;;;;;;29.63;16.90;;;;;;;;;;765761;181;919019;-69
2021/11/10 00:29:06;;;;;;;33.13;14.30;;;;;;;;;;773576;181;918809;-68
2021/11/10 00:31:32;;;;;;;22.27;13.87;;;;;;;;;;769622;179;919326;-68
2021/11/10 00:33:58;;;;;;;21.33;13.37;;;;;;;;;;769504;180;1019163;-67
2021/11/10 00:36:24;;;;;;;20.35;12.32;;;;;;;;;;774556;180;919224;-67
2021/11/10 00:38:50;;;;;;;23.87;13.67;;;;;;;;;;768538;177;915762;-68
2021/11/10 00:41:16;;;;;;;21.97;13.40;;;;;;;;;;765051;180;916173;-68
2021/11/10 00:43:41;;;;;;;25.90;12.83;;;;;;;;;;768279;180;919059;-68
2021/11/10 00:46:07;;;;;;;23.57;13.80;;;;;;;;;;773859;180;919832;-68
2021/11/10 00:48:33;;;;;;;23.97;14.37;;;;;;;;;;762510;180;918520;-68
2021/11/10 00:50:59;;;;;;;22.63;14.07;;;;;;;;;;766027;180;928252;-68
2021/11/10 00:53:25;;;;;;;25.00;15.80;;;;;;;;;;770382;179;919240;-68
2021/11/10 00:55:51;;;;;;;28.00;15.60;;;;;;;;;;763719;181;933873;-68
2021/11/10 00:58:16;;;;;;;24.17;15.13;;;;;;;;;;763150;181;918838;-67
2021/11/10 01:00:42;;;;;;;22.50;13.23;;;;;;;;;;773351;180;918665;-68
2021/11/10 01:03:08;;;;;;;27.77;13.67;;;;;;;;;;767645;180;919311;-68
2021/11/10 01:05:34;;;;;;;20.37;13.50;;;;;;;;;;771056;178;919817;-67
2021/11/10 01:08:00;;;;;;;28.08;14.98;;;;;;;;;;771679;180;919062;-68
2021/11/10 01:10:26;;;;;;;23.37;12.20;;;;;;;;;;768341;180;917843;-68
2021/11/10 01:12:52;;;;;;;22.40;14.50;;;;;;;;;;766602;180;919351;-68
2021/11/10 01:15:18;;;;;;;23.03;14.97;;;;;;;;;;770893;180;920451;-67
2021/11/10 01:17:43;;;;;;;27.02;16.50;;;;;;;;;;775589;179;913581;-68
2021/11/10 01:20:10;;;;;;;24.87;16.40;;;;;;;;;;769148;179;916263;-68
2021/11/10 01:22:35;;;;;;;29.93;15.90;;;;;;;;;;772715;180;915519;-68
2021/11/10 01:25:01;;;;;;;25.33;16.97;;;;;;;;;;777317;179;919362;-68
2021/11/10 01:27:27;;;;;;;31.30;17.20;;;;;;;;;;767055;180;919404;-67
2021/11/10 01:29:53;;;;;;;24.70;14.80;;;;;;;;;;770530;180;918437;-70
2021/11/10 01:32:19;;;;;;;22.95;15.15;;;;;;;;;;769833;180;918151;-68
2021/11/10 01:34:45;;;;;;;21.53;14.77;;;;;;;;;;767759;180;1427446;-68
2021/11/10 01:37:11;;;;;;;25.33;14.57;;;;;;;;;;767205;180;919160;-71
2021/11/10 01:39:37;;;;;;;26.27;16.13;;;;;;;;;;768935;180;918687;-67
2021/11/10 01:42:05;;;;;;;22.00;14.30;;;;;;;;;;775843;179;920158;-68
2021/11/10 01:44:29;;;;;;;24.92;15.40;;;;;;;;;;773612;179;917373;-68
2021/11/10 01:46:55;;;;;;;21.73;14.37;;;;;;;;;;773832;180;919037;-67
2021/11/10 01:49:20;;;;;;;22.63;13.90;;;;;;;;;;773779;180;918558;-68
2021/11/10 01:51:48;;;;;;;24.83;14.20;;;;;;;;;;763487;180;919756;-69
2021/11/10 01:54:12;;;;;;;23.97;12.90;;;;;;;;;;768391;180;919028;-67
2021/11/10 01:56:39;;;;;;;22.98;12.25;;;;;;;;;;776363;180;918838;-66
2021/11/10 01:59:05;;;;;;;23.30;13.73;;;;;;;;;;771664;180;919251;-68
2021/11/10 02:01:31;;;;;;;24.10;13.63;;;;;;;;;;769717;179;919504;-68
2021/11/10 02:03:56;;;;;;;25.23;13.60;;;;;;;;;;768198;181;919564;-67
2021/11/10 02:06:22;;;;;;;21.23;14.00;;;;;;;;;;771582;180;919105;-67
2021/11/10 02:08:49;;;;;;;22.97;13.97;;;;;;;;;;770819;179;920482;-66
2021/11/10 02:11:14;;;;;;;23.35;14.18;;;;;;;;;;773517;180;919029;-68
2021/11/10 02:13:40;;;;;;;22.27;14.20;;;;;;;;;;777007;180;921082;-67
2021/11/10 02:16:06;;;;;;;24.73;14.93;;;;;;;;;;772826;179;919067;-67
2021/11/10 02:18:32;;;;;;;29.13;13.10;;;;;;;;;;772931;180;916120;-68
2021/11/10 02:20:57;;;;;;;26.77;16.20;;;;;;;;;;776164;179;915860;-67
2021/11/10 02:23:23;;;;;;;21.20;12.88;;;;;;;;;;770392;180;916856;-67
2021/11/10 02:25:56;;;;;;;21.13;12.90;;;;;;;;;;770862;180;917625;-67
2021/11/10 02:28:15;;;;;;;24.10;15.70;;;;;;;;;;766512;179;919195;-67
2021/11/10 02:30:42;;;;;;;24.13;12.73;;;;;;;;;;770251;181;918895;-67
2021/11/10 02:33:07;;;;;;;21.83;14.50;;;;;;;;;;768587;180;918801;-66
2021/11/10 02:35:32;;;;;;;22.57;14.60;;;;;;;;;;766430;180;919699;-67
2021/11/10 02:37:58;;;;;;;24.00;14.40;;;;;;;;;;772785;180;918776;-66
2021/11/10 02:40:24;;;;;;;20.90;14.10;;;;;;;;;;762855;180;1696714;-67
2021/11/10 02:42:50;;;;;;;22.20;14.63;;;;;;;;;;772571;180;919414;-68
2021/11/10 02:45:16;;;;;;;25.80;15.03;;;;;;;;;;774813;180;916103;-66
2021/11/10 02:47:43;;;;;;;33.47;20.07;;;;;;;;;;770497;181;919776;-68
2021/11/10 02:50:08;;;;;;;27.70;17.37;;;;;;;;;;770639;180;1017105;-69
2021/11/10 02:52:34;;;;;;;29.40;15.80;;;;;;;;;;767032;181;918698;-67
2021/11/10 02:54:59;;;;;;;30.47;16.17;;;;;;;;;;765616;182;1020113;-68
2021/11/10 02:57:26;;;;;;;34.72;17.52;;;;;;;;;;768888;179;918580;-68
2021/11/10 02:59:51;;;;;;;32.70;17.93;;;;;;;;;;768127;179;918424;-66
2021/11/10 03:02:23;;;;;;;34.77;20.53;;;;;;;;;;774113;181;917065;-68
2021/11/10 03:04:49;;;;;;;37.93;22.87;;;;;;;;;;771308;180;918714;-68
2021/11/10 03:07:15;;;;;;;36.13;18.80;;;;;;;;;;771230;180;918639;-68
2021/11/10 03:09:41;;;;;;;41.47;23.10;;;;;;;;;;771861;180;919025;-67
2021/11/10 03:12:08;;;;;;;41.20;22.50;;;;;;;;;;769160;181;918621;-68
2021/11/10 03:14:33;;;;;;;40.25;20.60;;;;;;;;;;764961;180;919165;-68
2021/11/10 03:16:59;;;;;;;42.10;21.60;;;;;;;;;;768912;180;918695;-68
2021/11/10 03:19:25;;;;;;;34.77;20.10;;;;;;;;;;776449;180;919141;-68
2021/11/10 03:21:51;;;;;;;37.77;20.23;;;;;;;;;;772229;180;918034;-68
2021/11/10 03:24:17;;;;;;;32.93;18.77;;;;;;;;;;766041;179;918851;-68
2021/11/10 03:26:43;;;;;;;33.95;17.75;;;;;;;;;;775746;180;933706;-67
2021/11/10 03:29:08;;;;;;;31.60;17.60;;;;;;;;;;771177;179;919235;-67
2021/11/10 03:31:34;;;;;;;30.90;17.43;;;;;;;;;;774330;180;919385;-66
2021/11/10 03:34:00;;;;;;;27.30;16.05;;;;;;;;;;776885;180;919188;-67
2021/11/10 03:36:26;;;;;;;28.17;15.77;;;;;;;;;;770637;180;919488;-65
2021/11/10 03:38:52;;;;;;;24.50;15.00;;;;;;;;;;768696;180;919619;-64
2021/11/10 03:41:18;;;;;;;19.00;11.30;;;;;;;;;;773745;180;918228;-64
2021/11/10 03:43:44;;;;;;;25.20;13.27;;;;;;;;;;780444;180;918840;-65
2021/11/10 03:46:09;;;;;;;19.80;12.20;;;;;;;;;;773844;179;919073;-65
2021/11/10 03:48:35;;;;;;;18.10;10.50;;;;;;;;;;766887;181;927600;-65
2021/11/10 03:51:01;;;;;;;20.23;12.00;;;;;;;;;;774939;180;919265;-64
2021/11/10 03:53:27;;;;;;;20.50;10.98;;;;;;;;;;770763;180;919584;-65
2021/11/10 03:55:53;;;;;;;19.13;11.70;;;;;;;;;;770076;180;918810;-66
2021/11/10 03:58:19;;;;;;;15.80;10.83;;;;;;;;;;776976;180;918748;-65
2021/11/10 04:00:44;;;;;;;18.30;10.70;;;;;;;;;;771886;180;919794;-65
2021/11/10 04:03:10;;;;;;;16.87;11.53;;;;;;;;;;763817;181;918856;-64
2021/11/10 04:05:36;;;;;;;17.57;10.03;;;;;;;;;;770860;180;919419;-65
2021/11/10 04:08:02;;;;;;;17.00;9.53;;;;;;;;;;770668;181;919609;-65
2021/11/10 04:10:28;;;;;;;15.13;9.60;;;;;;;;;;761076;181;923158;-65
2021/11/10 04:12:54;;;;;;;15.00;9.37;;;;;;;;;;767036;180;919835;-65
2021/11/10 04:15:20;;;;;;;11.73;8.47;;;;;;;;;;773132;179;918768;-65
2021/11/10 04:17:46;;;;;;;13.57;9.15;;;;;;;;;;769766;180;918563;-65
2021/11/10 04:20:12;;;;;;;11.73;7.60;;;;;;;;;;773615;180;917662;-65
2021/11/10 04:22:38;;;;;;;18.52;8.40;;;;;;;;;;773982;180;918673;-65
2021/11/10 04:25:04;;;;;;;12.40;7.93;;;;;;;;;;770284;180;919268;-65
2021/11/10 04:27:30;;;;;;;20.80;8.23;;;;;;;;;;765889;181;918999;-63
2021/11/10 04:29:55;;;;;;;14.73;6.80;;;;;;;;;;769381;180;923408;-62
2021/11/10 04:32:22;;;;;;;10.10;7.20;;;;;;;;;;759852;182;2135021;-64
2021/11/10 04:34:47;;;;;;;14.47;6.70;;;;;;;;;;774378;179;620032;-63
2021/11/10 04:37:15;;;;;;;10.47;6.23;;;;;;;;;;771571;181;617555;-64
2021/11/10 04:39:39;;;;;;;12.07;6.77;;;;;;;;;;775480;180;918567;-64
2021/11/10 04:42:05;;;;;;;11.40;5.90;;;;;;;;;;773810;179;919453;-63
2021/11/10 04:44:31;;;;;;;14.10;7.00;;;;;;;;;;769119;180;918608;-62
2021/11/10 04:46:57;;;;;;;11.70;7.60;;;;;;;;;;777636;179;919806;-64
2021/11/10 04:49:23;;;;;;;13.60;7.90;;;;;;;;;;767141;180;920892;-63
2021/11/10 04:51:50;;;;;;;11.07;6.90;;;;;;;;;;770210;181;919081;-64
2021/11/10 04:54:19;;;;;;;11.25;6.40;;;;;;;;;;777468;180;614299;-62
2021/11/10 04:56:41;;;;;;;8.73;6.50;;;;;;;;;;772797;180;629702;-62
2021/11/10 04:59:07;;;;;;;8.00;5.50;;;;;;;;;;767098;182;631928;-63
2021/11/10 05:01:37;;;;;;;16.33;6.90;;;;;;;;;;766538;181;1021506;-63
2021/11/10 05:04:00;;;;;;;10.90;7.20;;;;;;;;;;778469;180;633343;-64
2021/11/10 05:06:26;;;;;;;13.37;7.40;;;;;;;;;;759359;182;919218;-62
2021/11/10 05:08:52;;;;;;;8.82;6.03;;;;;;;;;;768266;179;919628;-62
2021/11/10 05:11:18;;;;;;;10.13;6.33;;;;;;;;;;775175;180;667075;-62
2021/11/10 05:13:44;;;;;;;8.07;5.87;;;;;;;;;;769601;180;913773;-62
2021/11/10 05:16:09;;;;;;;7.80;5.53;;;;;;;;;;768638;180;919477;-62
2021/11/10 05:18:35;;;;;;;11.60;5.70;;;;;;;;;;774919;180;808932;-63
2021/11/10 05:21:01;;;;;;;9.13;5.50;;;;;;;;;;773759;179;910287;-63
2021/11/10 05:23:27;;;;;;;7.80;5.50;;;;;;;;;;764135;182;648128;-64
2021/11/10 05:25:53;;;;;;;9.90;6.50;;;;;;;;;;760889;181;915408;-63
2021/11/10 05:28:19;;;;;;;11.50;6.00;;;;;;;;;;776627;180;915613;-62
2021/11/10 05:30:44;;;;;;;11.52;6.40;;;;;;;;;;770560;180;918461;-62
2021/11/10 05:33:10;;;;;;;10.70;6.43;;;;;;;;;;769841;180;918919;-63
2021/11/10 05:35:36;;;;;;;9.83;6.33;;;;;;;;;;769941;180;1007464;-63
2021/11/10 05:38:02;;;;;;;9.17;5.73;;;;;;;;;;761315;180;2186888;-62
2021/11/10 05:40:29;;;;;;;9.57;5.60;;;;;;;;;;773679;179;919245;-62
2021/11/10 05:42:54;;;;;;;8.97;5.30;;;;;;;;;;779272;180;619318;-62
2021/11/10 05:45:20;;;;;;;11.10;6.33;;;;;;;;;;774436;180;636699;-64
2021/11/10 05:47:46;;;;;;;10.17;5.80;;;;;;;;;;774015;180;634496;-63
2021/11/10 05:50:11;;;;;;;8.70;5.30;;;;;;;;;;773116;180;632011;-63
2021/11/10 05:52:38;;;;;;;14.13;5.90;;;;;;;;;;780974;179;617257;-62
2021/11/10 05:55:04;;;;;;;9.73;5.80;;;;;;;;;;772119;180;919250;-63
2021/11/10 05:57:29;;;;;;;8.30;5.60;;;;;;;;;;769100;180;920537;-62
2021/11/10 05:59:55;;;;;;;6.97;5.23;;;;;;;;;;775508;180;918810;-63
2021/11/10 06:02:21;;;;;;;9.27;5.80;;;;;;;;;;768198;179;919575;-63
2021/11/10 06:04:47;;;;;;;8.33;5.67;;;;;;;;;;771745;179;920302;-66
2021/11/10 06:07:13;;;;;;;10.67;4.63;;;;;;;;;;778525;179;1124137;-63
2021/11/10 06:09:39;;;;;;;9.47;5.80;;;;;;;;;;769605;179;919108;-62
2021/11/10 06:12:05;;;;;;;7.10;4.87;;;;;;;;;;768452;180;919306;-62
2021/11/10 06:14:32;;;;;;;6.47;4.90;;;;;;;;;;766000;180;1789974;-63
2021/11/10 06:16:58;;;;;;;7.25;5.53;;;;;;;;;;768894;181;923192;-63
2021/11/10 06:19:26;;;;;;;7.57;5.40;;;;;;;;;;766413;180;915205;-62
2021/11/10 06:21:50;;;;;;;8.40;5.50;;;;;;;;;;768349;179;918607;-64
2021/11/10 06:24:17;;;;;;;10.38;6.53;;;;;;;;;;774562;180;917791;-64
2021/11/10 06:26:41;;;;;;;7.20;4.57;;;;;;;;;;769823;180;918339;-62
2021/11/10 06:29:08;;;;;;;9.70;5.60;;;;;;;;;;770490;179;917336;-62
2021/11/10 06:31:33;;;;;;;9.17;5.00;;;;;;;;;;774256;179;918231;-62
2021/11/10 06:33:59;;;;;;;7.70;5.10;;;;;;;;;;769114;180;918934;-62
2021/11/10 06:36:26;;;;;;;12.73;5.73;;;;;;;;;;769763;179;918694;-62
2021/11/10 06:38:51;;;;;;;8.90;5.20;;;;;;;;;;767047;180;919070;-63
2021/11/10 06:41:19;;;;;;;7.87;5.20;;;;;;;;;;774535;180;919541;-62
2021/11/10 06:43:45;;;;;;;7.60;5.30;;;;;;;;;;773074;180;918684;-63
2021/11/10 06:46:11;;;;;;;7.67;5.00;;;;;;;;;;766981;180;920107;-62
2021/11/10 06:48:37;;;;;;;7.57;5.07;;;;;;;;;;773133;181;920517;-62
2021/11/10 06:51:02;;;;;;;7.80;5.00;;;;;;;;;;768470;180;919288;-62
2021/11/10 06:53:28;;;;;;;9.83;5.00;;;;;;;;;;768921;181;920283;-63
2021/11/10 06:55:54;;;;;;;7.70;5.13;;;;;;;;;;776197;180;918092;-63
2021/11/10 06:58:20;;;;;;;7.73;5.47;;;;;;;;;;766521;180;922725;-62
2021/11/10 07:00:46;;;;;;;6.85;4.72;;;;;;;;;;769053;180;918274;-62
2021/11/10 07:03:13;;;;;;;9.33;4.70;;;;;;;;;;769674;180;915012;-62
2021/11/10 07:05:38;;;;;;;7.93;5.33;;;;;;;;;;770141;180;918966;-62
2021/11/10 07:08:04;;;;;;;8.30;5.43;;;;;;;;;;768509;180;919436;-62
2021/11/10 07:10:30;;;;;;;9.17;5.27;;;;;;;;;;771775;180;919533;-62
2021/11/10 07:12:55;;;;;;;8.20;5.43;;;;;;;;;;772981;180;919453;-63
2021/11/10 07:15:24;;;;;;;8.10;5.27;;;;;;;;;;771571;180;919513;-62
2021/11/10 07:17:47;;;;;;;10.30;5.07;;;;;;;;;;771481;179;918698;-62
2021/11/10 07:20:13;;;;;;;13.47;5.20;;;;;;;;;;777500;179;920182;-62
2021/11/10 07:22:39;;;;;;;10.30;5.30;;;;;;;;;;767202;180;917148;-62
2021/11/10 07:25:05;;;;;;;6.57;4.80;;;;;;;;;;768379;180;943128;-62
2021/11/10 07:27:33;;;;;;;9.60;5.03;;;;;;;;;;767430;180;918515;-61
2021/11/10 07:29:57;;;;;;;6.63;4.80;;;;;;;;;;765854;180;931389;-62
2021/11/10 07:32:23;;;;;;;5.90;3.77;;;;;;;;;;762892;181;918910;-62
2021/11/10 07:34:49;;;;;;;8.87;5.47;;;;;;;;;;766628;181;918230;-62
2021/11/10 07:37:15;;;;;;;10.37;5.67;;;;;;;;;;770435;180;1122771;-62
2021/11/10 07:39:43;;;;;;;10.07;7.40;;;;;;;;;;769391;180;919059;-63
2021/11/10 07:42:07;;;;;;;8.93;4.73;;;;;;;;;;774382;180;917455;-63
2021/11/10 07:44:34;;;;;;;11.15;6.35;;;;;;;;;;775934;180;918697;-62
2021/11/10 07:47:10;;;;;;;6.90;4.80;;;;;;;;;;772362;180;919230;-62
2021/11/10 07:49:36;;;;;;;8.40;3.83;;;;;;;;;;764665;180;919661;-62
2021/11/10 07:52:02;;;;;;;10.20;6.00;;;;;;;;;;761123;180;934762;-63
2021/11/10 07:54:28;;;;;;;7.70;4.50;;;;;;;;;;773922;180;918796;-62
2021/11/10 07:56:53;;;;;;;10.50;4.43;;;;;;;;;;768541;179;919428;-62
2021/11/10 07:59:19;;;;;;;6.37;4.00;;;;;;;;;;767128;180;924102;-62
2021/11/10 08:01:45;;;;;;;6.30;3.75;;;;;;;;;;769899;179;919285;-61
2021/11/10 08:04:11;;;;;;;7.17;4.60;;;;;;;;;;763368;183;919687;-62
2021/11/10 08:06:37;;;;;;;8.37;5.60;;;;;;;;;;766679;180;1018050;-63
2021/11/10 08:09:03;;;;;;;6.20;4.20;;;;;;;;;;766548;181;1021343;-62
2021/11/10 08:11:29;;;;;;;7.20;5.20;;;;;;;;;;775726;180;918734;-62
2021/11/10 08:13:55;;;;;;;5.50;4.68;;;;;;;;;;767590;180;919888;-62
2021/11/10 08:16:21;;;;;;;6.20;3.70;;;;;;;;;;771569;180;917615;-63
2021/11/10 08:18:46;;;;;;;7.83;4.63;;;;;;;;;;775014;180;919158;-62
2021/11/10 08:21:12;;;;;;;6.77;4.63;;;;;;;;;;769601;180;918696;-62
2021/11/10 08:23:38;;;;;;;8.90;4.78;;;;;;;;;;770990;180;919145;-62
2021/11/10 08:26:04;;;;;;;10.00;5.13;;;;;;;;;;774993;180;918680;-62
2021/11/10 08:28:30;;;;;;;8.07;5.00;;;;;;;;;;770663;180;919612;-63
2021/11/10 08:30:56;;;;;;;10.57;5.30;;;;;;;;;;766774;181;919242;-63
2021/11/10 08:33:22;;;;;;;8.68;4.80;;;;;;;;;;771545;180;934810;-62
2021/11/10 08:35:47;;;;;;;7.30;4.57;;;;;;;;;;771385;180;1740708;-62
2021/11/10 08:38:13;;;;;;;8.37;5.03;;;;;;;;;;767384;180;919099;-62
2021/11/10 08:40:39;;;;;;;7.03;4.70;;;;;;;;;;771825;179;920459;-63
2021/11/10 08:43:09;;;;;;;7.70;4.20;;;;;;;;;;772071;180;919722;-62
2021/11/10 08:45:34;;;;;;;9.40;5.43;;;;;;;;;;771201;180;917006;-62
2021/11/10 08:47:58;;;;;;;7.30;4.40;;;;;;;;;;768899;180;920411;-62
2021/11/10 08:50:25;;;;;;;6.73;4.80;;;;;;;;;;775032;180;915164;-63
2021/11/10 08:52:50;;;;;;;8.55;4.43;;;;;;;;;;765913;180;916815;-63
2021/11/10 08:55:15;;;;;;;7.87;4.23;;;;;;;;;;765590;181;916449;-64
2021/11/10 08:57:41;;;;;;;9.50;5.77;;;;;;;;;;770675;180;918658;-63
2021/11/10 09:00:08;;;;;;;8.40;5.57;;;;;;;;;;772479;180;919614;-63
2021/11/10 09:02:34;;;;;;;9.60;5.10;;;;;;;;;;763768;180;920189;-63
2021/11/10 09:05:00;;;;;;;7.30;4.37;;;;;;;;;;770905;180;919052;-62
2021/11/10 09:07:26;;;;;;;7.73;4.97;;;;;;;;;;777811;179;909710;-63
2021/11/10 09:09:51;;;;;;;8.17;4.97;;;;;;;;;;770245;179;919661;-62
2021/11/10 09:12:17;;;;;;;7.90;4.45;;;;;;;;;;769682;180;884486;-64
2021/11/10 09:14:43;;;;;;;5.40;4.40;;;;;;;;;;770944;179;915656;-63
2021/11/10 09:17:12;;;;;;;8.00;4.47;;;;;;;;;;766665;180;919650;-62
2021/11/10 09:19:35;;;;;;;5.50;4.30;;;;;;;;;;765418;180;915584;-64
2021/11/10 09:22:01;;;;;;;7.80;4.70;;;;;;;;;;768153;180;916325;-65
2021/11/10 09:24:26;;;;;;;7.97;4.67;;;;;;;;;;771734;180;972977;-63
2021/11/10 09:26:54;;;;;;;7.28;4.40;;;;;;;;;;761519;181;920089;-66
2021/11/10 09:29:20;;;;;;;5.87;4.00;;;;;;;;;;773247;179;918775;-62
2021/11/10 09:31:45;;;;;;;9.30;5.10;;;;;;;;;;779395;179;920372;-63
2021/11/10 09:34:12;;;;;;;7.03;4.53;;;;;;;;;;768994;180;919521;-62
2021/11/10 09:36:39;;;;;;;8.97;5.17;;;;;;;;;;768842;180;921991;-63
2021/11/10 09:39:03;;;;;;;7.23;5.07;;;;;;;;;;773247;179;920167;-62
2021/11/10 09:41:28;;;;;;;6.30;4.57;;;;;;;;;;767440;180;919416;-62
2021/11/10 09:43:58;;;;;;;6.60;3.87;;;;;;;;;;768106;180;920299;-63
2021/11/10 09:46:20;;;;;;;9.93;4.90;;;;;;;;;;766420;180;919143;-63
2021/11/10 09:48:46;;;;;;;6.50;4.13;;;;;;;;;;768955;180;919169;-64
2021/11/10 09:51:12;;;;;;;8.33;4.83;;;;;;;;;;757815;180;1594421;-65
2021/11/10 09:53:38;;;;;;;6.55;4.43;;;;;;;;;;768271;180;936455;-63
2021/11/10 09:56:04;;;;;;;7.60;4.93;;;;;;;;;;776099;180;918403;-64
2021/11/10 09:58:32;;;;;;;7.10;5.10;;;;;;;;;;769066;180;922580;-64
2021/11/10 10:00:56;;;;;;;10.93;4.80;;;;;;;;;;768195;180;918426;-63
2021/11/10 10:03:22;;;;;;;7.87;5.00;;;;;;;;;;768489;180;917901;-63
2021/11/10 10:05:48;;;;;;;5.60;4.13;;;;;;;;;;769655;180;922133;-64
2021/11/10 10:08:13;;;;;;;9.43;5.20;;;;;;;;;;768844;180;1022576;-64
2021/11/10 10:10:40;;;;;;;6.33;4.00;;;;;;;;;;772190;181;918336;-63
2021/11/10 10:13:05;;;;;;;10.33;5.47;;;;;;;;;;766895;180;919047;-63
2021/11/10 10:15:32;;;;;;;6.83;4.17;;;;;;;;;;767091;180;918530;-61
2021/11/10 10:17:57;;;;;;;10.37;5.27;;;;;;;;;;766646;179;920129;-64
2021/11/10 10:20:23;;;;;;;8.00;4.33;;;;;;;;;;777597;180;916986;-64
2021/11/10 10:22:49;;;;;;;6.33;4.43;;;;;;;;;;764764;180;919436;-64
2021/11/10 10:25:15;;;;;;;6.93;4.67;;;;;;;;;;763770;181;922541;-64
2021/11/10 10:27:41;;;;;;;8.13;4.50;;;;;;;;;;769243;179;916080;-65
2021/11/10 10:30:27;;;;;;;6.13;4.00;;;;;;;;;;766391;180;919524;-64
2021/11/10 10:32:53;;;;;;;6.10;4.00;;;;;;;;;;769985;180;922075;-63
2021/11/10 10:35:25;;;;;;;8.25;4.28;;;;;;;;;;765445;181;919095;-64
2021/11/10 10:37:51;;;;;;;6.90;4.50;;;;;;;;;;768236;178;919337;-64
2021/11/10 10:40:17;;;;;;;6.57;4.70;;;;;;;;;;776319;180;922259;-63
2021/11/10 10:42:43;;;;;;;6.13;4.37;;;;;;;;;;767003;180;916575;-64
2021/11/10 10:45:08;;;;;;;6.37;3.80;;;;;;;;;;768423;181;918149;-64
2021/11/10 10:47:50;;;;;;;4.80;3.30;;;;;;;;;;766901;180;911509;-64
2021/11/10 10:50:22;;;;;;;6.43;4.27;;;;;;;;;;775205;179;910504;-64
2021/11/10 10:52:54;;;;;;;8.63;4.30;;;;;;;;;;776132;179;908216;-64
2021/11/10 10:55:25;;;;;;;6.20;3.97;;;;;;;;;;765505;180;915480;-65
2021/11/10 10:57:57;;;;;;;5.70;3.90;;;;;;;;;;766202;179;918874;-64
2021/11/10 11:00:21;;;;;;;5.83;4.10;;;;;;;;;;778502;179;913252;-64
2021/11/10 11:02:47;;;;;;;5.80;3.70;;;;;;;;;;778689;179;908591;-64
2021/11/10 11:05:13;;;;;;;7.50;4.77;;;;;;;;;;759228;180;1731013;-63
2021/11/10 11:07:39;;;;;;;8.33;4.80;;;;;;;;;;766453;180;919402;-63
2021/11/10 11:10:06;;;;;;;5.70;4.00;;;;;;;;;;773959;180;918827;-64
2021/11/10 11:12:34;;;;;;;7.43;4.80;;;;;;;;;;769998;180;919771;-63
2021/11/10 11:15:07;;;;;;;6.37;4.15;;;;;;;;;;768903;180;927813;-63
2021/11/10 11:17:31;;;;;;;7.33;4.07;;;;;;;;;;767922;181;918843;-63
2021/11/10 11:19:57;;;;;;;7.07;4.47;;;;;;;;;;775061;179;918356;-64
2021/11/10 11:22:24;;;;;;;4.57;3.67;;;;;;;;;;766533;181;919630;-63
2021/11/10 11:24:50;;;;;;;5.93;4.10;;;;;;;;;;770375;180;919385;-63
2021/11/10 11:27:24;;;;;;;8.90;4.30;;;;;;;;;;775136;180;919772;-63
2021/11/10 11:29:52;;;;;;;6.00;3.80;;;;;;;;;;772029;180;917606;-64
2021/11/10 11:32:17;;;;;;;5.90;3.67;;;;;;;;;;771378;179;919350;-63
2021/11/10 11:34:46;;;;;;;5.60;4.13;;;;;;;;;;762538;179;918993;-63
2021/11/10 11:37:12;;;;;;;8.07;4.10;;;;;;;;;;771473;180;912333;-63
2021/11/10 11:39:38;;;;;;;6.80;4.05;;;;;;;;;;769188;180;918333;-65
2021/11/10 11:42:04;;;;;;;7.63;3.87;;;;;;;;;;769445;180;918412;-63
2021/11/10 11:44:30;;;;;;;6.00;3.65;;;;;;;;;;771391;180;919423;-63
2021/11/10 11:46:56;;;;;;;7.57;4.70;;;;;;;;;;772900;180;919481;-65
2021/11/10 11:49:22;;;;;;;8.90;4.47;;;;;;;;;;762576;180;917950;-64
2021/11/10 11:51:48;;;;;;;5.33;3.53;;;;;;;;;;769349;180;918212;-64
2021/11/10 11:54:14;;;;;;;6.20;3.97;;;;;;;;;;775806;179;919181;-63
2021/11/10 11:56:40;;;;;;;6.65;4.05;;;;;;;;;;769569;179;919202;-66
2021/11/10 11:59:08;;;;;;;7.27;4.40;;;;;;;;;;769385;180;919120;-64
2021/11/10 12:01:32;;;;;;;6.80;4.43;;;;;;;;;;774473;180;918356;-64
2021/11/10 12:03:58;;;;;;;7.43;3.90;;;;;;;;;;770331;180;918430;-64
2021/11/10 12:06:24;;;;;;;5.70;3.80;;;;;;;;;;767783;180;924768;-64
2021/11/10 12:08:49;;;;;;;7.03;4.80;;;;;;;;;;773377;180;937060;-66
2021/11/10 12:11:34;;;;;;;7.20;3.40;;;;;;;;;;766678;180;1068115;-65
2021/11/10 12:14:17;;;;;;;6.87;4.73;;;;;;;;;;770344;180;919135;-65
2021/11/10 12:16:59;;;;;;;6.93;4.03;;;;;;;;;;772470;180;918605;-63
2021/11/10 12:19:25;;;;;;;8.37;4.00;;;;;;;;;;772390;180;918871;-64
2021/11/10 12:21:51;;;;;;;5.20;3.83;;;;;;;;;;766577;181;917940;-64
2021/11/10 12:24:20;;;;;;;7.22;3.67;;;;;;;;;;764878;180;942574;-64
2021/11/10 12:26:51;;;;;;;6.50;4.33;;;;;;;;;;771325;180;919085;-64
2021/11/10 12:29:17;;;;;;;6.10;3.87;;;;;;;;;;770907;179;918479;-63
2021/11/10 12:31:43;;;;;;;6.40;3.30;;;;;;;;;;767310;180;919101;-63
2021/11/10 12:34:29;;;;;;;6.50;4.00;;;;;;;;;;766415;179;920855;-63
2021/11/10 12:36:54;;;;;;;8.10;3.70;;;;;;;;;;766961;180;918962;-67
2021/11/10 12:39:26;;;;;;;5.30;3.57;;;;;;;;;;773043;180;919904;-65
2021/11/10 12:41:52;;;;;;;4.97;3.67;;;;;;;;;;768411;180;918745;-64
2021/11/10 12:44:24;;;;;;;6.53;3.90;;;;;;;;;;766391;180;920747;-64
2021/11/10 12:46:49;;;;;;;5.10;3.25;;;;;;;;;;764135;180;1555053;-64
2021/11/10 12:49:16;;;;;;;7.80;3.73;;;;;;;;;;764501;182;918316;-64
2021/11/10 12:51:41;;;;;;;6.67;4.17;;;;;;;;;;764307;179;948229;-63
2021/11/10 12:54:23;;;;;;;6.03;4.33;;;;;;;;;;765387;181;919822;-67
2021/11/10 12:56:50;;;;;;;9.53;4.40;;;;;;;;;;765536;180;919199;-64
2021/11/10 12:59:20;;;;;;;6.10;4.30;;;;;;;;;;772722;180;919264;-64
2021/11/10 13:01:46;;;;;;;5.30;4.03;;;;;;;;;;771353;180;921192;-63
2021/11/10 13:04:11;;;;;;;6.73;4.87;;;;;;;;;;769785;176;918737;-63
2021/11/10 13:06:38;;;;;;;7.83;4.97;;;;;;;;;;770493;179;918764;-63
2021/11/10 13:09:09;;;;;;;14.27;4.93;;;;;;;;;;775129;180;916322;-64
2021/11/10 13:11:29;;;;;;;7.60;4.57;;;;;;;;;;770749;180;918419;-63
2021/11/10 13:14:01;;;;;;;6.90;4.70;;;;;;;;;;770267;180;919372;-67
2021/11/10 13:16:27;;;;;;;6.40;4.67;;;;;;;;;;771531;180;917930;-64
2021/11/10 13:18:53;;;;;;;5.80;4.20;;;;;;;;;;767127;180;918766;-63
2021/11/10 13:21:19;;;;;;;10.83;5.03;;;;;;;;;;769252;180;915271;-64
2021/11/10 13:23:44;;;;;;;11.70;5.10;;;;;;;;;;765210;180;1030295;-63
2021/11/10 13:26:10;;;;;;;8.90;5.50;;;;;;;;;;775817;180;914180;-63
2021/11/10 13:28:36;;;;;;;6.37;4.37;;;;;;;;;;765869;180;915498;-64
2021/11/10 13:31:03;;;;;;;5.53;3.87;;;;;;;;;;767528;180;919437;-63
2021/11/10 13:33:39;;;;;;;5.35;4.50;;;;;;;;;;770258;180;1022130;-64
2021/11/10 13:36:07;;;;;;;8.13;4.37;;;;;;;;;;770546;181;919072;-63
2021/11/10 13:38:38;;;;;;;6.10;4.50;;;;;;;;;;767870;180;917606;-63
2021/11/10 13:41:03;;;;;;;5.87;4.15;;;;;;;;;;764856;180;919429;-64
2021/11/10 13:43:29;;;;;;;7.40;4.63;;;;;;;;;;774694;180;619052;-63
2021/11/10 13:45:56;;;;;;;8.63;4.50;;;;;;;;;;774566;180;629826;-65
2021/11/10 13:48:22;;;;;;;7.33;5.03;;;;;;;;;;772211;180;822831;-64
2021/11/10 13:50:48;;;;;;;7.27;4.47;;;;;;;;;;770440;180;624919;-64
2021/11/10 13:53:14;;;;;;;8.67;5.07;;;;;;;;;;772917;180;626017;-66
2021/11/10 13:55:40;;;;;;;7.50;5.07;;;;;;;;;;766756;182;816248;-64
2021/11/10 13:58:07;;;;;;;6.53;4.30;;;;;;;;;;772177;180;641552;-64
2021/11/10 14:00:33;;;;;;;9.10;5.27;;;;;;;;;;776179;180;645133;-63
2021/11/10 14:02:59;;;;;;;16.80;5.43;;;;;;;;;;774201;179;860408;-63
2021/11/10 14:05:26;;;;;;;7.17;5.03;;;;;;;;;;773709;181;618639;-62
2021/11/10 14:07:51;;;;;;;6.50;4.60;;;;;;;;;;771758;180;628942;-62
2021/11/10 14:10:17;;;;;;;9.17;5.20;;;;;;;;;;765008;179;618269;-63
2021/11/10 14:12:50;;;;;;;9.63;4.70;;;;;;;;;;776708;178;636611;-64
2021/11/10 14:15:20;;;;;;;5.80;4.70;;;;;;;;;;772839;179;626195;-63